createdAt,value
2019-05-03T00:01:23.902Z,99.00
2019-05-03T00:03:53.520Z,99.10
2019-05-03T00:06:23.710Z,99.10
2019-05-03T00:08:53.479Z,99.20
2019-05-03T00:11:23.106Z,99.30
2019-05-03T00:13:52.773Z,99.30
2019-05-03T00:16:24.018Z,99.30
2019-05-03T00:18:53.756Z,99.40
2019-05-03T00:21:23.383Z,99.50
2019-05-03T00:23:53.007Z,99.50
2019-05-03T00:26:22.698Z,99.60
2019-05-03T00:28:52.703Z,99.60
2019-05-03T00:31:22.674Z,99.70
2019-05-03T00:33:55.084Z,99.70
2019-05-03T00:36:26.124Z,99.70
2019-05-03T00:38:57.390Z,99.80
2019-05-03T00:41:27.031Z,99.90
2019-05-03T00:43:56.689Z,99.90
2019-05-03T00:46:26.334Z,99.90
2019-05-03T00:48:56.023Z,99.90
2019-05-03T00:51:25.769Z,99.90
2019-05-03T00:53:55.376Z,99.90
2019-05-03T00:56:25.028Z,99.70
2019-05-03T00:58:56.271Z,99.90
2019-05-03T01:01:25.958Z,99.80
2019-05-03T01:03:55.647Z,99.80
2019-05-03T01:06:25.350Z,99.80
2019-05-03T01:09:00.298Z,99.80
2019-05-03T01:11:32.476Z,99.90
2019-05-03T01:14:02.744Z,99.90
2019-05-03T01:16:32.477Z,99.90
2019-05-03T01:19:02.599Z,99.90
2019-05-03T01:21:32.543Z,99.90
2019-05-03T01:24:02.223Z,99.90
2019-05-03T01:26:32.022Z,99.90
2019-05-03T01:29:02.710Z,99.90
2019-05-03T01:31:33.522Z,99.90
2019-05-03T01:34:03.393Z,99.90
2019-05-03T01:36:33.053Z,99.90
2019-05-03T01:39:04.317Z,99.90
2019-05-03T01:41:35.567Z,99.90
2019-05-03T01:44:05.351Z,99.90
2019-05-03T01:46:34.987Z,99.90
2019-05-03T01:49:06.313Z,99.90
2019-05-03T01:51:37.510Z,99.90
2019-05-03T01:54:07.173Z,99.90
2019-05-03T01:56:36.849Z,99.90
2019-05-03T01:59:06.444Z,99.90
2019-05-03T02:01:37.770Z,99.90
2019-05-03T02:04:12.286Z,99.90
2019-05-03T02:06:43.152Z,99.90
2019-05-03T02:09:12.793Z,99.90
2019-05-03T02:11:42.446Z,99.90
2019-05-03T02:14:12.456Z,99.90
2019-05-03T02:16:42.216Z,99.90
2019-05-03T02:19:12.636Z,99.90
2019-05-03T02:21:43.640Z,99.90
2019-05-03T02:24:14.436Z,99.90
2019-05-03T02:26:44.071Z,99.90
2019-05-03T02:29:13.753Z,99.90
2019-05-03T02:31:43.861Z,99.90
2019-05-03T02:34:13.556Z,99.90
2019-05-03T02:36:43.182Z,99.90
2019-05-03T02:39:14.512Z,99.90
2019-05-03T02:41:47.806Z,99.90
2019-05-03T02:44:18.124Z,99.90
2019-05-03T02:46:49.314Z,99.90
2019-05-03T02:49:20.558Z,99.90
2019-05-03T02:51:50.273Z,99.90
2019-05-03T02:54:19.899Z,99.90
2019-05-03T02:56:49.508Z,99.90
2019-05-03T02:59:19.101Z,99.90
2019-05-03T03:01:48.729Z,99.90
2019-05-03T03:04:18.460Z,99.90
2019-05-03T03:06:49.311Z,99.90
2019-05-03T03:09:21.791Z,99.90
2019-05-03T03:11:55.717Z,99.90
2019-05-03T03:14:27.592Z,99.90
2019-05-03T03:17:00.275Z,99.90
2019-05-03T03:19:30.748Z,99.90
2019-05-03T03:22:06.190Z,99.90
2019-05-03T03:24:39.573Z,99.90
2019-05-03T03:27:12.198Z,99.90
2019-05-03T03:29:45.711Z,99.90
2019-05-03T03:32:19.373Z,99.90
2019-05-03T03:34:56.830Z,99.90
2019-05-03T03:37:25.963Z,99.90
2019-05-03T03:39:56.532Z,99.90
2019-05-03T03:42:26.158Z,99.90
2019-05-03T03:44:56.866Z,99.90
2019-05-03T03:47:29.448Z,99.90
2019-05-03T03:49:59.812Z,99.90
2019-05-03T03:52:32.377Z,99.90
2019-05-03T03:55:06.432Z,99.90
2019-05-03T03:57:36.816Z,99.90
2019-05-03T04:00:08.885Z,99.90
2019-05-03T04:02:41.296Z,99.90
2019-05-03T04:05:10.911Z,99.90
2019-05-03T04:07:40.547Z,99.90
2019-05-03T04:10:10.674Z,99.90
2019-05-03T04:12:42.009Z,99.90
2019-05-03T04:15:15.903Z,99.90
2019-05-03T04:17:46.230Z,99.90
2019-05-03T04:20:17.447Z,99.90
2019-05-03T04:22:47.107Z,99.90
2019-05-03T04:25:16.649Z,99.90
2019-05-03T04:27:46.249Z,99.90
2019-05-03T04:30:16.667Z,99.90
2019-05-03T04:32:46.477Z,99.90
2019-05-03T04:35:16.597Z,99.90
2019-05-03T04:37:46.434Z,99.90
2019-05-03T04:40:16.193Z,99.90
2019-05-03T04:42:46.714Z,99.90
2019-05-03T04:45:16.887Z,99.90
2019-05-03T04:47:46.694Z,99.90
2019-05-03T04:50:16.702Z,99.90
2019-05-03T04:52:46.688Z,99.90
2019-05-03T04:55:17.576Z,99.90
2019-05-03T04:57:50.457Z,99.90
2019-05-03T05:00:18.616Z,99.90
2019-05-03T05:02:48.439Z,99.90
2019-05-03T05:05:18.152Z,99.90
2019-05-03T05:07:47.837Z,99.90
2019-05-03T05:10:17.452Z,99.90
2019-05-03T05:12:47.157Z,99.90
2019-05-03T05:15:16.797Z,99.90
2019-05-03T05:17:48.078Z,99.90
2019-05-03T05:20:20.500Z,99.90
2019-05-03T05:22:50.096Z,99.90
2019-05-03T05:25:21.403Z,99.90
2019-05-03T05:27:55.409Z,99.90
2019-05-03T05:30:25.365Z,99.90
2019-05-03T05:32:55.343Z,99.90
2019-05-03T05:35:25.194Z,99.90
2019-05-03T05:37:54.788Z,99.90
2019-05-03T05:40:24.658Z,99.90
2019-05-03T05:42:54.615Z,99.90
2019-05-03T05:45:24.753Z,99.90
2019-05-03T05:47:55.957Z,99.90
2019-05-03T05:50:27.263Z,99.90
2019-05-03T05:52:56.957Z,99.90
2019-05-03T05:55:28.163Z,99.90
2019-05-03T05:58:04.621Z,99.90
2019-05-03T06:00:32.328Z,99.90
2019-05-03T06:03:02.306Z,99.90
2019-05-03T06:05:31.855Z,99.90
2019-05-03T06:08:04.734Z,99.90
2019-05-03T06:10:35.765Z,99.90
2019-05-03T06:13:07.057Z,99.90
2019-05-03T06:15:38.266Z,99.90
2019-05-03T06:18:09.518Z,99.90
2019-05-03T06:20:40.818Z,99.90
2019-05-03T06:23:12.198Z,99.90
2019-05-03T06:25:42.233Z,99.90
2019-05-03T06:28:18.392Z,99.90
2019-05-03T06:30:46.941Z,99.90
2019-05-03T06:33:17.091Z,99.90
2019-05-03T06:35:46.782Z,99.90
2019-05-03T06:38:16.451Z,99.90
2019-05-03T06:40:46.050Z,99.90
2019-05-03T06:43:15.836Z,99.90
2019-05-03T06:45:46.630Z,99.90
2019-05-03T06:48:17.732Z,99.90
2019-05-03T06:50:48.277Z,99.90
2019-05-03T06:53:18.047Z,99.90
2019-05-03T06:55:48.556Z,99.90
2019-05-03T06:58:30.395Z,99.90
2019-05-03T07:00:52.429Z,99.90
2019-05-03T07:03:25.156Z,99.90
2019-05-03T07:05:57.659Z,99.90
2019-05-03T07:08:28.953Z,99.90
2019-05-03T07:11:01.290Z,99.90
2019-05-03T07:13:31.055Z,99.90
2019-05-03T07:16:00.707Z,99.90
2019-05-03T07:18:30.806Z,99.90
2019-05-03T07:21:00.452Z,99.90
2019-05-03T07:23:30.020Z,99.90
2019-05-03T07:25:59.689Z,99.90
2019-05-03T07:28:29.337Z,99.90
2019-05-03T07:30:58.975Z,99.90
2019-05-03T07:33:30.274Z,99.90
2019-05-03T07:35:59.878Z,99.90
2019-05-03T07:38:29.576Z,99.90
2019-05-03T07:40:59.207Z,99.90
2019-05-03T07:43:28.931Z,99.90
2019-05-03T07:45:58.611Z,99.90
2019-05-03T07:48:28.339Z,99.90
2019-05-03T07:50:57.996Z,99.90
2019-05-03T07:53:27.698Z,99.90
2019-05-03T07:55:58.877Z,99.90
2019-05-03T07:58:30.217Z,99.90
2019-05-03T08:01:06.407Z,99.60
2019-05-03T08:03:34.865Z,99.60
2019-05-03T08:06:05.018Z,99.40
2019-05-03T08:08:35.826Z,99.50
2019-05-03T08:11:05.513Z,99.50
2019-05-03T08:13:35.536Z,99.30
2019-05-03T08:16:06.012Z,99.40
2019-05-03T08:18:35.898Z,99.60
2019-05-03T08:21:05.896Z,99.90
2019-05-03T08:23:35.745Z,99.30
2019-05-03T08:26:06.107Z,99.00
2019-05-03T08:28:35.968Z,98.60
2019-05-03T08:31:07.249Z,98.50
2019-05-03T08:33:37.071Z,98.40
2019-05-03T08:36:06.753Z,98.70
2019-05-03T08:38:36.338Z,98.40
2019-05-03T08:41:07.996Z,96.80
2019-05-03T08:43:38.105Z,97.10
2019-05-03T08:46:07.743Z,96.30
2019-05-03T08:48:37.375Z,96.50
2019-05-03T08:51:07.069Z,96.80
2019-05-03T08:53:36.779Z,97.50
2019-05-03T08:56:06.478Z,97.90
2019-05-03T08:58:36.159Z,98.10
2019-05-03T09:01:06.373Z,98.40
2019-05-03T09:03:38.288Z,98.60
2019-05-03T09:06:07.347Z,98.50
2019-05-03T09:08:37.043Z,98.30
2019-05-03T09:11:08.212Z,97.70
2019-05-03T09:13:39.535Z,97.80
2019-05-03T09:16:09.197Z,97.90
2019-05-03T09:18:38.847Z,98.20
2019-05-03T09:21:08.465Z,98.20
2019-05-03T09:23:38.158Z,98.30
2019-05-03T09:26:07.783Z,98.50
2019-05-03T09:28:37.484Z,98.70
2019-05-03T09:31:07.117Z,98.70
2019-05-03T09:33:36.857Z,99.00
2019-05-03T09:36:06.607Z,98.80
2019-05-03T09:38:36.318Z,98.70
2019-05-03T09:41:21.127Z,98.10
2019-05-03T09:44:00.836Z,98.10
2019-05-03T09:46:35.303Z,97.80
2019-05-03T09:49:12.581Z,97.00
2019-05-03T09:51:35.014Z,96.50
2019-05-03T09:54:06.541Z,96.40
2019-05-03T09:56:44.272Z,95.30
2019-05-03T09:59:10.472Z,94.60
2019-05-03T10:01:40.112Z,90.20
2019-05-03T10:04:12.995Z,90.70
2019-05-03T10:06:42.660Z,91.90
2019-05-03T10:09:12.398Z,93.00
2019-05-03T10:11:45.535Z,93.80
2019-05-03T10:14:15.343Z,94.30
2019-05-03T10:16:46.351Z,94.70
2019-05-03T10:19:16.236Z,95.70
2019-05-03T10:21:47.676Z,96.10
2019-05-03T10:24:17.288Z,97.00
2019-05-03T10:26:46.963Z,97.50
2019-05-03T10:29:17.884Z,98.00
2019-05-03T10:31:49.185Z,98.40
2019-05-03T10:34:18.998Z,99.00
2019-05-03T10:36:48.696Z,99.60
2019-05-03T10:39:18.305Z,99.40
2019-05-03T10:41:49.591Z,98.80
2019-05-03T10:44:20.003Z,98.90
2019-05-03T10:46:49.638Z,98.60
2019-05-03T10:49:19.319Z,98.80
2019-05-03T10:51:50.518Z,99.10
2019-05-03T10:54:20.172Z,98.30
2019-05-03T10:56:55.910Z,97.40
2019-05-03T10:59:25.818Z,97.80
2019-05-03T11:01:57.048Z,98.00
2019-05-03T11:04:27.711Z,98.60
2019-05-03T11:06:57.399Z,97.10
2019-05-03T11:09:27.093Z,97.40
2019-05-03T11:11:57.908Z,96.90
2019-05-03T11:14:28.216Z,96.60
2019-05-03T11:17:00.458Z,95.40
2019-05-03T11:19:29.231Z,96.20
2019-05-03T11:21:59.020Z,96.30
2019-05-03T11:24:29.250Z,96.00
2019-05-03T11:27:00.567Z,95.60
2019-05-03T11:29:30.229Z,95.10
2019-05-03T11:32:01.622Z,94.30
2019-05-03T11:34:35.319Z,94.10
2019-05-03T11:37:07.325Z,94.70
2019-05-03T11:39:36.951Z,95.20
2019-05-03T11:42:06.736Z,94.80
2019-05-03T11:44:37.974Z,94.70
2019-05-03T11:47:08.963Z,93.60
2019-05-03T11:49:38.613Z,93.70
2019-05-03T11:52:08.442Z,92.90
2019-05-03T11:54:38.114Z,93.00
2019-05-03T11:57:09.386Z,93.10
2019-05-03T11:59:39.112Z,93.10
2019-05-03T12:02:10.707Z,92.60
2019-05-03T12:04:40.424Z,93.70
2019-05-03T12:07:10.097Z,92.60
2019-05-03T12:09:39.683Z,91.60
2019-05-03T12:12:10.918Z,92.90
2019-05-03T12:14:42.150Z,91.70
2019-05-03T12:17:22.587Z,92.20
2019-05-03T12:19:47.225Z,90.60
2019-05-03T12:22:16.723Z,90.60
2019-05-03T12:24:49.170Z,91.10
2019-05-03T12:27:19.767Z,91.70
2019-05-03T12:29:52.244Z,91.80
2019-05-03T12:32:20.726Z,91.00
2019-05-03T12:34:50.418Z,90.80
2019-05-03T12:37:20.098Z,89.50
2019-05-03T12:39:49.717Z,88.90
2019-05-03T12:42:19.417Z,88.30
2019-05-03T12:44:49.108Z,90.20
2019-05-03T12:47:18.779Z,90.60
2019-05-03T12:49:49.939Z,91.30
2019-05-03T12:52:20.232Z,89.20
2019-05-03T12:54:50.479Z,88.90
2019-05-03T12:57:20.178Z,89.90
2019-05-03T12:59:51.487Z,90.00
2019-05-03T13:02:24.738Z,90.40
2019-05-03T13:04:55.405Z,89.90
2019-05-03T13:07:26.969Z,90.70
2019-05-03T13:09:56.668Z,90.10
2019-05-03T13:12:27.997Z,90.40
2019-05-03T13:14:57.670Z,89.40
2019-05-03T13:17:28.943Z,90.00
2019-05-03T13:19:58.655Z,89.80
2019-05-03T13:22:28.230Z,89.70
2019-05-03T13:24:57.890Z,89.50
2019-05-03T13:27:27.626Z,88.90
2019-05-03T13:29:57.240Z,90.40
2019-05-03T13:32:26.944Z,91.10
2019-05-03T13:34:59.664Z,91.70
2019-05-03T13:37:29.364Z,92.50
2019-05-03T13:39:59.111Z,93.30
2019-05-03T13:42:28.769Z,93.40
2019-05-03T13:44:58.477Z,93.80
2019-05-03T13:47:28.109Z,93.80
2019-05-03T13:49:57.855Z,94.20
2019-05-03T13:52:27.519Z,94.40
2019-05-03T13:54:57.236Z,94.70
2019-05-03T13:57:26.911Z,95.00
2019-05-03T13:59:56.601Z,95.20
2019-05-03T14:02:26.301Z,95.50
2019-05-03T14:04:59.053Z,95.40
2019-05-03T14:07:28.793Z,95.10
2019-05-03T14:09:58.394Z,94.60
2019-05-03T14:12:28.131Z,94.80
2019-05-03T14:14:57.721Z,94.90
2019-05-03T14:17:29.385Z,94.80
2019-05-03T14:20:00.604Z,94.50
2019-05-03T14:22:31.919Z,94.70
2019-05-03T14:25:04.490Z,94.70
2019-05-03T14:27:35.014Z,94.40
2019-05-03T14:30:07.908Z,94.20
2019-05-03T14:32:37.642Z,93.60
2019-05-03T14:35:08.012Z,93.70
2019-05-03T14:37:38.049Z,93.60
2019-05-03T14:40:08.665Z,93.80
2019-05-03T14:42:39.382Z,93.50
2019-05-03T14:45:09.362Z,93.90
2019-05-03T14:47:38.932Z,93.60
2019-05-03T14:50:08.793Z,93.60
2019-05-03T14:52:38.501Z,93.60
2019-05-03T14:55:14.583Z,93.60
2019-05-03T14:57:45.462Z,93.80
2019-05-03T15:00:17.479Z,93.70
2019-05-03T15:02:51.147Z,93.20
2019-05-03T15:05:20.416Z,93.40
2019-05-03T15:07:50.075Z,93.60
2019-05-03T15:10:19.657Z,93.00
2019-05-03T15:12:49.223Z,92.00
2019-05-03T15:15:18.874Z,91.30
2019-05-03T15:17:48.571Z,91.50
2019-05-03T15:20:18.386Z,91.30
2019-05-03T15:22:48.022Z,90.90
2019-05-03T15:25:17.898Z,90.90
2019-05-03T15:27:48.614Z,90.50
2019-05-03T15:30:18.909Z,90.80
2019-05-03T15:32:57.642Z,91.00
2019-05-03T15:35:20.662Z,90.90
2019-05-03T15:37:50.212Z,90.80
2019-05-03T15:40:19.934Z,90.30
2019-05-03T15:42:51.228Z,90.60
2019-05-03T15:45:25.227Z,90.20
2019-05-03T15:47:56.735Z,90.60
2019-05-03T15:50:26.437Z,91.10
2019-05-03T15:52:56.052Z,91.00
2019-05-03T15:55:25.800Z,91.20
2019-05-03T15:57:55.393Z,92.00
2019-05-03T16:00:25.054Z,92.10
2019-05-03T16:02:58.453Z,91.50
2019-05-03T16:05:26.054Z,90.30
2019-05-03T16:07:55.752Z,90.80
2019-05-03T16:10:25.403Z,91.50
2019-05-03T16:12:55.098Z,91.40
2019-05-03T16:15:24.784Z,91.50
2019-05-03T16:17:55.316Z,91.40
2019-05-03T16:20:25.236Z,91.30
2019-05-03T16:22:54.908Z,91.10
2019-05-03T16:25:25.311Z,91.10
2019-05-03T16:27:56.526Z,91.10
2019-05-03T16:30:27.767Z,91.20
2019-05-03T16:32:57.418Z,91.50
2019-05-03T16:35:26.937Z,91.60
2019-05-03T16:37:57.325Z,91.80
2019-05-03T16:40:26.942Z,92.00
2019-05-03T16:42:56.608Z,92.00
2019-05-03T16:45:27.301Z,92.00
2019-05-03T16:47:56.977Z,92.00
2019-05-03T16:50:28.192Z,92.10
2019-05-03T16:52:57.900Z,92.00
2019-05-03T16:55:27.466Z,92.00
2019-05-03T16:57:57.111Z,92.10
2019-05-03T17:00:26.846Z,92.00
2019-05-03T17:02:57.537Z,92.20
2019-05-03T17:05:28.757Z,91.70
2019-05-03T17:08:00.057Z,91.70
2019-05-03T17:10:31.250Z,91.90
2019-05-03T17:13:00.842Z,91.60
2019-05-03T17:15:30.409Z,91.50
2019-05-03T17:18:00.030Z,91.60
2019-05-03T17:20:29.798Z,91.50
2019-05-03T17:22:59.454Z,91.40
2019-05-03T17:25:29.118Z,91.70
2019-05-03T17:27:58.843Z,91.80
2019-05-03T17:30:33.725Z,91.90
2019-05-03T17:32:59.826Z,92.10
2019-05-03T17:35:29.482Z,92.20
2019-05-03T17:37:59.066Z,92.50
2019-05-03T17:40:30.314Z,92.60
2019-05-03T17:43:01.605Z,92.90
2019-05-03T17:45:35.078Z,93.00
2019-05-03T17:48:04.846Z,93.10
2019-05-03T17:50:34.880Z,93.30
2019-05-03T17:53:05.894Z,93.50
2019-05-03T17:55:37.306Z,93.60
2019-05-03T17:58:09.823Z,93.70
2019-05-03T18:00:41.076Z,94.20
2019-05-03T18:03:10.840Z,94.10
2019-05-03T18:05:44.895Z,94.40
2019-05-03T18:08:15.673Z,94.50
2019-05-03T18:10:46.849Z,94.60
2019-05-03T18:13:16.383Z,94.80
2019-05-03T18:15:46.070Z,95.00
2019-05-03T18:18:15.789Z,95.20
2019-05-03T18:20:45.489Z,95.30
2019-05-03T18:23:15.431Z,95.40
2019-05-03T18:25:45.451Z,95.50
2019-05-03T18:28:15.051Z,95.60
2019-05-03T18:30:45.489Z,95.80
2019-05-03T18:33:15.642Z,95.90
2019-05-03T18:35:45.227Z,96.00
2019-05-03T18:38:14.956Z,96.10
2019-05-03T18:40:49.611Z,96.20
2019-05-03T18:43:20.792Z,96.30
2019-05-03T18:45:51.620Z,96.30
2019-05-03T18:48:24.453Z,96.50
2019-05-03T18:50:52.366Z,96.50
2019-05-03T18:53:21.824Z,96.60
2019-05-03T18:55:51.525Z,96.70
2019-05-03T18:58:21.161Z,97.10
2019-05-03T19:00:51.889Z,96.80
2019-05-03T19:03:21.578Z,96.80
2019-05-03T19:05:54.678Z,96.90
2019-05-03T19:08:25.593Z,96.90
2019-05-03T19:10:56.845Z,97.00
2019-05-03T19:13:28.059Z,97.10
2019-05-03T19:15:58.446Z,97.10
2019-05-03T19:18:29.847Z,97.20
2019-05-03T19:20:59.496Z,97.30
2019-05-03T19:23:29.112Z,97.30
2019-05-03T19:25:58.776Z,97.30
2019-05-03T19:28:28.315Z,97.40
2019-05-03T19:30:59.855Z,97.50
2019-05-03T19:33:29.551Z,97.70
2019-05-03T19:36:00.340Z,97.80
2019-05-03T19:38:29.990Z,97.80
2019-05-03T19:40:59.622Z,97.90
2019-05-03T19:43:29.281Z,98.00
2019-05-03T19:45:58.990Z,97.90
2019-05-03T19:48:28.527Z,97.90
2019-05-03T19:50:58.113Z,97.90
2019-05-03T19:53:28.111Z,98.00
2019-05-03T19:55:57.899Z,97.90
2019-05-03T19:58:27.504Z,97.90
2019-05-03T20:00:59.240Z,97.90
2019-05-03T20:03:30.651Z,98.00
2019-05-03T20:06:01.900Z,98.00
2019-05-03T20:08:35.057Z,98.00
2019-05-03T20:11:06.368Z,98.00
2019-05-03T20:13:37.401Z,98.00
2019-05-03T20:16:07.169Z,97.90
2019-05-03T20:18:37.953Z,97.90
2019-05-03T20:21:07.646Z,97.90
2019-05-03T20:23:37.273Z,97.90
2019-05-03T20:26:06.943Z,97.80
2019-05-03T20:28:36.611Z,97.70
2019-05-03T20:31:08.148Z,97.70
2019-05-03T20:33:38.824Z,97.60
2019-05-03T20:36:09.464Z,97.60
2019-05-03T20:38:39.121Z,97.60
2019-05-03T20:41:08.778Z,97.60
2019-05-03T20:43:40.092Z,97.60
2019-05-03T20:46:11.340Z,97.50
2019-05-03T20:48:44.799Z,97.40
2019-05-03T20:51:14.958Z,97.50
2019-05-03T20:53:44.939Z,97.50
2019-05-03T20:56:15.472Z,97.50
2019-05-03T20:58:45.196Z,97.50
2019-05-03T21:01:15.337Z,97.50
2019-05-03T21:03:45.120Z,97.50
2019-05-03T21:06:15.267Z,97.50
2019-05-03T21:08:52.422Z,97.50
2019-05-03T21:11:16.446Z,97.60
2019-05-03T21:13:46.139Z,97.70
2019-05-03T21:16:18.225Z,97.70
2019-05-03T21:18:49.008Z,97.70
2019-05-03T21:21:20.259Z,97.80
2019-05-03T21:23:51.484Z,97.90
2019-05-03T21:26:21.157Z,97.90
2019-05-03T21:28:50.789Z,97.90
2019-05-03T21:31:20.375Z,98.00
2019-05-03T21:33:50.011Z,98.00
2019-05-03T21:36:19.550Z,98.00
2019-05-03T21:38:49.169Z,98.00
2019-05-03T21:41:18.767Z,98.10
2019-05-03T21:43:48.413Z,98.00
2019-05-03T21:46:19.608Z,98.00
2019-05-03T21:48:50.885Z,98.00
2019-05-03T21:51:20.478Z,98.00
2019-05-03T21:53:50.067Z,98.00
2019-05-03T21:56:19.636Z,97.90
2019-05-03T21:58:49.220Z,97.90
2019-05-03T22:01:18.866Z,97.90
2019-05-03T22:03:48.536Z,97.80
2019-05-03T22:06:18.149Z,98.00
2019-05-03T22:08:47.767Z,97.70
2019-05-03T22:11:17.419Z,97.60
2019-05-03T22:13:48.644Z,97.50
2019-05-03T22:16:21.493Z,97.40
2019-05-03T22:18:51.107Z,97.30
2019-05-03T22:21:22.359Z,97.20
2019-05-03T22:23:55.220Z,97.20
2019-05-03T22:26:28.095Z,97.20
2019-05-03T22:28:57.694Z,97.30
2019-05-03T22:31:27.361Z,97.60
2019-05-03T22:33:58.487Z,97.20
2019-05-03T22:36:28.092Z,97.10
2019-05-03T22:38:59.250Z,97.00
2019-05-03T22:41:28.870Z,96.90
2019-05-03T22:44:00.384Z,96.80
2019-05-03T22:46:29.996Z,96.70
2019-05-03T22:48:59.653Z,96.60
2019-05-03T22:51:29.261Z,96.60
2019-05-03T22:53:58.909Z,96.60
2019-05-03T22:56:28.449Z,96.60
2019-05-03T22:58:58.091Z,96.60
2019-05-03T23:01:27.726Z,96.60
2019-05-03T23:03:58.595Z,96.70
2019-05-03T23:06:28.205Z,96.70
2019-05-03T23:08:57.809Z,96.80
2019-05-03T23:11:27.405Z,96.80
2019-05-03T23:13:59.183Z,96.90
2019-05-03T23:16:28.848Z,96.80
2019-05-03T23:18:58.455Z,96.90
2019-05-03T23:21:30.858Z,97.00
2019-05-03T23:24:00.438Z,97.10
2019-05-03T23:26:29.990Z,97.20
2019-05-03T23:28:59.683Z,97.30
2019-05-03T23:31:29.337Z,97.40
2019-05-03T23:33:59.011Z,97.50
2019-05-03T23:36:33.388Z,97.60
2019-05-03T23:38:59.948Z,97.70
2019-05-03T23:41:29.515Z,97.70
2019-05-03T23:43:59.199Z,97.80
2019-05-03T23:46:30.447Z,97.80
2019-05-03T23:49:00.020Z,97.90
2019-05-03T23:51:31.311Z,97.90
2019-05-03T23:54:01.090Z,98.00
2019-05-03T23:56:30.637Z,98.10
2019-05-03T23:59:00.314Z,98.00
